PAL874 RCTP-RPLL
Flight info
| Callsign | PAL874 |
|---|---|
| Flight time | N/A |
| Altitude | 34000 |
| Route | RCTP/05R TINHO1A TINHO Q11 POTIB M646 LAO/N0462F350 B462 CAB CAB3R RPLL/06 |
| Aircraft | A21N/M-SDE3FGHIRWY/LB1 |
Departure
| Time | N/A |
|---|---|
| Airport | Taiwan Taoyuan International Airport (RCTP) |
Arrival
| Time | 2026-05-05 04:44 |
|---|---|
| Airport | Ninoy Aquino International Airport (RPLL) |
| Time | Latitude | Longitude | Altitude | Speed | Heading |
|---|---|---|---|---|---|
| 2026-05-05 04:01 | 18.39023 | 120.54594 | 33930 ft | 447 kts | 181° |
| 2026-05-05 04:01 | 18.35924 | 120.54346 | 33930 ft | 447 kts | 181° |
| 2026-05-05 04:01 | 18.29701 | 120.53848 | 33930 ft | 447 kts | 181° |
| 2026-05-05 04:02 | 18.23479 | 120.53379 | 33991 ft | 448 kts | 179° |
| 2026-05-05 04:02 | 18.20362 | 120.53311 | 34209 ft | 446 kts | 176° |
| 2026-05-05 04:02 | 18.17425 | 120.53408 | 34441 ft | 443 kts | 174° |
| 2026-05-05 04:03 | 18.14316 | 120.53683 | 34660 ft | 441 kts | 171° |
| 2026-05-05 04:03 | 18.11264 | 120.54131 | 34852 ft | 439 kts | 167° |
| 2026-05-05 04:03 | 18.05194 | 120.55262 | 34926 ft | 439 kts | 167° |
| 2026-05-05 04:04 | 17.99173 | 120.56388 | 34929 ft | 439 kts | 167° |
| 2026-05-05 04:04 | 17.93187 | 120.57495 | 34930 ft | 439 kts | 167° |
| 2026-05-05 04:05 | 17.87195 | 120.58601 | 34930 ft | 439 kts | 167° |
| 2026-05-05 04:05 | 17.81178 | 120.59714 | 34920 ft | 439 kts | 167° |
| 2026-05-05 04:06 | 17.75171 | 120.60822 | 34909 ft | 439 kts | 167° |
| 2026-05-05 04:06 | 17.69136 | 120.61935 | 34904 ft | 439 kts | 167° |
| 2026-05-05 04:07 | 17.63124 | 120.63045 | 34902 ft | 439 kts | 167° |
| 2026-05-05 04:07 | 17.57072 | 120.64162 | 34902 ft | 439 kts | 167° |
| 2026-05-05 04:08 | 17.51080 | 120.65267 | 34902 ft | 439 kts | 167° |
| 2026-05-05 04:08 | 17.45062 | 120.66376 | 34902 ft | 439 kts | 167° |
| 2026-05-05 04:09 | 17.39048 | 120.67484 | 34902 ft | 439 kts | 167° |
| 2026-05-05 04:09 | 17.33075 | 120.68584 | 34902 ft | 439 kts | 167° |
| 2026-05-05 04:10 | 17.27230 | 120.69659 | 34902 ft | 439 kts | 167° |
| 2026-05-05 04:10 | 17.21207 | 120.70770 | 34902 ft | 439 kts | 167° |
| 2026-05-05 04:11 | 17.15149 | 120.71890 | 34902 ft | 439 kts | 167° |
| 2026-05-05 04:11 | 17.09158 | 120.72995 | 34901 ft | 439 kts | 167° |
| 2026-05-05 04:12 | 17.03188 | 120.74097 | 34901 ft | 440 kts | 167° |
| 2026-05-05 04:12 | 16.97144 | 120.75211 | 34901 ft | 442 kts | 167° |
| 2026-05-05 04:13 | 16.91059 | 120.76331 | 34901 ft | 443 kts | 167° |
| 2026-05-05 04:13 | 16.85006 | 120.77445 | 34902 ft | 443 kts | 167° |
| 2026-05-05 04:14 | 16.79438 | 120.78468 | 34902 ft | 443 kts | 167° |
| 2026-05-05 04:14 | 16.73216 | 120.79611 | 34903 ft | 443 kts | 167° |
| 2026-05-05 04:15 | 16.67041 | 120.80746 | 34908 ft | 443 kts | 167° |
| 2026-05-05 04:15 | 16.61094 | 120.81838 | 34917 ft | 443 kts | 167° |
| 2026-05-05 04:16 | 16.55119 | 120.82933 | 34923 ft | 443 kts | 167° |
| 2026-05-05 04:16 | 16.49137 | 120.84029 | 34926 ft | 443 kts | 167° |
| 2026-05-05 04:17 | 16.42978 | 120.85158 | 34928 ft | 443 kts | 167° |
| 2026-05-05 04:17 | 16.36933 | 120.86265 | 34928 ft | 443 kts | 167° |
| 2026-05-05 04:18 | 16.30827 | 120.87382 | 34928 ft | 443 kts | 167° |
| 2026-05-05 04:18 | 16.24757 | 120.88492 | 34928 ft | 443 kts | 167° |
| 2026-05-05 04:19 | 16.21703 | 120.89050 | 34635 ft | 445 kts | 167° |
| 2026-05-05 04:19 | 16.18674 | 120.89603 | 34039 ft | 444 kts | 167° |
| 2026-05-05 04:19 | 16.15600 | 120.90165 | 33371 ft | 445 kts | 167° |
| 2026-05-05 04:19 | 16.12573 | 120.90717 | 32644 ft | 447 kts | 167° |
| 2026-05-05 04:20 | 16.09495 | 120.91280 | 31870 ft | 450 kts | 167° |
| 2026-05-05 04:20 | 16.06410 | 120.91843 | 31053 ft | 454 kts | 167° |
| 2026-05-05 04:20 | 16.03246 | 120.92420 | 30399 ft | 453 kts | 167° |
| 2026-05-05 04:20 | 16.00186 | 120.92978 | 29871 ft | 449 kts | 167° |
| 2026-05-05 04:21 | 15.97105 | 120.93539 | 29348 ft | 446 kts | 167° |
| 2026-05-05 04:21 | 15.94033 | 120.94099 | 28831 ft | 443 kts | 167° |
| 2026-05-05 04:21 | 15.91021 | 120.94647 | 28325 ft | 440 kts | 167° |
| 2026-05-05 04:21 | 15.88692 | 120.95071 | 27934 ft | 437 kts | 167° |
| 2026-05-05 04:22 | 15.85631 | 120.95629 | 27417 ft | 434 kts | 167° |
| 2026-05-05 04:22 | 15.82673 | 120.96169 | 26919 ft | 431 kts | 167° |
| 2026-05-05 04:22 | 15.79684 | 120.96713 | 26390 ft | 429 kts | 167° |
| 2026-05-05 04:22 | 15.76731 | 120.97251 | 25878 ft | 427 kts | 167° |
| 2026-05-05 04:23 | 15.73803 | 120.97784 | 25373 ft | 424 kts | 168° |
| 2026-05-05 04:23 | 15.70909 | 120.98310 | 24877 ft | 422 kts | 168° |
| 2026-05-05 04:23 | 15.68036 | 120.98833 | 24386 ft | 420 kts | 168° |
| 2026-05-05 04:23 | 15.65157 | 120.99356 | 23898 ft | 418 kts | 168° |
| 2026-05-05 04:24 | 15.62306 | 120.99875 | 23414 ft | 416 kts | 168° |
| 2026-05-05 04:24 | 15.59459 | 121.00392 | 22930 ft | 413 kts | 168° |
| 2026-05-05 04:24 | 15.56663 | 121.00899 | 22680 ft | 404 kts | 168° |
| 2026-05-05 04:25 | 15.51257 | 121.01876 | 22384 ft | 380 kts | 169° |
| 2026-05-05 04:25 | 15.48641 | 121.02053 | 22198 ft | 372 kts | 182° |
| 2026-05-05 04:25 | 15.46091 | 121.01627 | 21846 ft | 368 kts | 197° |
| 2026-05-05 04:25 | 15.43723 | 121.00779 | 21442 ft | 366 kts | 201° |
| 2026-05-05 04:26 | 15.41293 | 120.99797 | 21038 ft | 364 kts | 202° |
| 2026-05-05 04:26 | 15.38939 | 120.98836 | 20644 ft | 361 kts | 202° |
| 2026-05-05 04:26 | 15.36585 | 120.97885 | 20252 ft | 359 kts | 201° |
| 2026-05-05 04:26 | 15.34258 | 120.96957 | 19863 ft | 357 kts | 201° |
| 2026-05-05 04:27 | 15.31946 | 120.96040 | 19475 ft | 354 kts | 201° |
| 2026-05-05 04:27 | 15.29654 | 120.95137 | 19090 ft | 352 kts | 201° |
| 2026-05-05 04:27 | 15.27370 | 120.94239 | 18704 ft | 350 kts | 201° |
| 2026-05-05 04:27 | 15.25092 | 120.93344 | 18317 ft | 347 kts | 202° |
| 2026-05-05 04:28 | 15.22852 | 120.92465 | 17937 ft | 345 kts | 202° |
| 2026-05-05 04:28 | 15.20581 | 120.91575 | 17548 ft | 343 kts | 202° |
| 2026-05-05 04:28 | 15.18336 | 120.90694 | 17167 ft | 341 kts | 202° |
| 2026-05-05 04:28 | 15.16112 | 120.89822 | 16785 ft | 338 kts | 202° |
| 2026-05-05 04:29 | 15.13909 | 120.88959 | 16409 ft | 336 kts | 202° |
| 2026-05-05 04:29 | 15.11820 | 120.88140 | 16051 ft | 334 kts | 202° |
| 2026-05-05 04:29 | 15.09643 | 120.87288 | 15676 ft | 332 kts | 202° |
| 2026-05-05 04:29 | 15.07482 | 120.86441 | 15305 ft | 329 kts | 203° |
| 2026-05-05 04:30 | 15.05353 | 120.85607 | 14941 ft | 327 kts | 203° |
| 2026-05-05 04:30 | 15.03215 | 120.84770 | 14572 ft | 325 kts | 203° |
| 2026-05-05 04:30 | 15.01119 | 120.83949 | 14217 ft | 322 kts | 203° |
| 2026-05-05 04:30 | 14.99023 | 120.83129 | 13872 ft | 319 kts | 203° |
| 2026-05-05 04:31 | 14.96946 | 120.82317 | 13532 ft | 316 kts | 203° |
| 2026-05-05 04:31 | 14.94917 | 120.81478 | 13210 ft | 312 kts | 203° |
| 2026-05-05 04:31 | 14.92903 | 120.80679 | 12873 ft | 309 kts | 202° |
| 2026-05-05 04:31 | 14.90902 | 120.79919 | 12542 ft | 306 kts | 202° |
| 2026-05-05 04:32 | 14.88830 | 120.79131 | 12194 ft | 304 kts | 202° |
| 2026-05-05 04:32 | 14.86859 | 120.78374 | 11860 ft | 301 kts | 202° |
| 2026-05-05 04:32 | 14.84892 | 120.77615 | 11506 ft | 299 kts | 202° |
| 2026-05-05 04:32 | 14.82937 | 120.76856 | 11142 ft | 297 kts | 202° |
| 2026-05-05 04:33 | 14.81003 | 120.76104 | 10777 ft | 296 kts | 202° |
| 2026-05-05 04:33 | 14.79060 | 120.75346 | 10409 ft | 294 kts | 202° |
| 2026-05-05 04:33 | 14.77154 | 120.74603 | 10042 ft | 293 kts | 202° |
| 2026-05-05 04:33 | 14.75223 | 120.73851 | 9677 ft | 292 kts | 202° |
| 2026-05-05 04:34 | 14.73325 | 120.73110 | 9333 ft | 290 kts | 202° |
| 2026-05-05 04:34 | 14.71444 | 120.72375 | 9025 ft | 286 kts | 202° |
| 2026-05-05 04:34 | 14.69593 | 120.71654 | 8742 ft | 282 kts | 202° |
| 2026-05-05 04:34 | 14.67753 | 120.70937 | 8420 ft | 279 kts | 202° |
| 2026-05-05 04:35 | 14.65931 | 120.70226 | 8100 ft | 276 kts | 201° |
| 2026-05-05 04:35 | 14.64180 | 120.69543 | 7870 ft | 273 kts | 201° |
| 2026-05-05 04:35 | 14.62290 | 120.68906 | 7714 ft | 276 kts | 187° |
| 2026-05-05 04:35 | 14.60397 | 120.69153 | 7425 ft | 276 kts | 154° |
| 2026-05-05 04:36 | 14.58740 | 120.70097 | 7106 ft | 272 kts | 151° |
| 2026-05-05 04:36 | 14.57138 | 120.71131 | 6833 ft | 266 kts | 151° |
| 2026-05-05 04:36 | 14.55548 | 120.72107 | 6507 ft | 263 kts | 152° |
| 2026-05-05 04:36 | 14.53992 | 120.73032 | 6259 ft | 257 kts | 152° |
| 2026-05-05 04:37 | 14.52425 | 120.73950 | 6003 ft | 252 kts | 152° |
| 2026-05-05 04:37 | 14.50921 | 120.74837 | 5753 ft | 252 kts | 152° |
| 2026-05-05 04:37 | 14.49379 | 120.75742 | 5498 ft | 252 kts | 152° |
| 2026-05-05 04:37 | 14.47855 | 120.76633 | 5142 ft | 253 kts | 152° |
| 2026-05-05 04:38 | 14.46327 | 120.77527 | 4799 ft | 251 kts | 152° |
| 2026-05-05 04:38 | 14.44798 | 120.78420 | 4466 ft | 249 kts | 152° |
| 2026-05-05 04:38 | 14.43293 | 120.79300 | 4147 ft | 247 kts | 151° |
| 2026-05-05 04:38 | 14.41811 | 120.80169 | 3832 ft | 244 kts | 149° |
| 2026-05-05 04:39 | 14.40558 | 120.81338 | 3450 ft | 243 kts | 118° |
| 2026-05-05 04:39 | 14.40281 | 120.82999 | 3284 ft | 236 kts | 78° |
| 2026-05-05 04:39 | 14.40979 | 120.84508 | 3210 ft | 231 kts | 59° |
| 2026-05-05 04:39 | 14.41836 | 120.85879 | 3131 ft | 219 kts | 59° |
| 2026-05-05 04:40 | 14.42617 | 120.87179 | 2932 ft | 203 kts | 61° |
| 2026-05-05 04:40 | 14.43321 | 120.88393 | 2640 ft | 191 kts | 62° |
| 2026-05-05 04:40 | 14.43969 | 120.89542 | 2344 ft | 175 kts | 62° |
| 2026-05-05 04:40 | 14.44557 | 120.90592 | 2068 ft | 159 kts | 63° |
| 2026-05-05 04:41 | 14.45082 | 120.91536 | 1864 ft | 151 kts | 62° |
| 2026-05-05 04:41 | 14.45607 | 120.92483 | 1674 ft | 151 kts | 63° |
| 2026-05-05 04:41 | 14.46123 | 120.93421 | 1512 ft | 150 kts | 62° |
| 2026-05-05 04:41 | 14.46653 | 120.94370 | 1316 ft | 152 kts | 63° |
| 2026-05-05 04:42 | 14.47187 | 120.95329 | 1133 ft | 151 kts | 63° |
| 2026-05-05 04:42 | 14.47715 | 120.96283 | 929 ft | 149 kts | 63° |
| 2026-05-05 04:42 | 14.48233 | 120.97212 | 708 ft | 151 kts | 63° |
| 2026-05-05 04:42 | 14.48760 | 120.98161 | 540 ft | 150 kts | 63° |
| 2026-05-05 04:43 | 14.49272 | 120.99084 | 357 ft | 148 kts | 63° |
| 2026-05-05 04:43 | 14.49787 | 121.00015 | 165 ft | 148 kts | 63° |
| 2026-05-05 04:43 | 14.50282 | 121.00899 | 85 ft | 129 kts | 61° |
| 2026-05-05 04:43 | 14.50639 | 121.01554 | 84 ft | 80 kts | 60° |
| 2026-05-05 04:44 | 14.50841 | 121.01915 | 84 ft | 42 kts | 60° |
| 2026-05-05 04:44 | 14.50941 | 121.02097 | 84 ft | 21 kts | 60° |
| 2026-05-05 04:44 | 14.51032 | 121.02204 | 84 ft | 18 kts | 42° |
| 2026-05-05 04:44 | 14.51103 | 121.02271 | 84 ft | 9 kts | 42° |
| 2026-05-05 04:45 | 14.51146 | 121.02303 | 84 ft | 6 kts | 20° |
| 2026-05-05 04:45 | 14.51184 | 121.02287 | 84 ft | 6 kts | 306° |
| 2026-05-05 04:45 | 14.51182 | 121.02243 | 84 ft | 6 kts | 244° |
| 2026-05-05 04:45 | 14.51159 | 121.02200 | 84 ft | 7 kts | 239° |
| 2026-05-05 04:46 | 14.51133 | 121.02155 | 84 ft | 7 kts | 240° |
| 2026-05-05 04:46 | 14.51107 | 121.02106 | 84 ft | 7 kts | 240° |
| 2026-05-05 04:46 | 14.51076 | 121.02052 | 84 ft | 10 kts | 240° |
| 2026-05-05 04:46 | 14.51039 | 121.01984 | 84 ft | 12 kts | 240° |
| 2026-05-05 04:47 | 14.50992 | 121.01900 | 84 ft | 14 kts | 240° |
| 2026-05-05 04:47 | 14.50942 | 121.01811 | 84 ft | 14 kts | 240° |
| 2026-05-05 04:47 | 14.50893 | 121.01723 | 84 ft | 14 kts | 240° |
| 2026-05-05 04:47 | 14.50843 | 121.01633 | 84 ft | 14 kts | 240° |
| 2026-05-05 04:48 | 14.50795 | 121.01547 | 84 ft | 13 kts | 240° |
| 2026-05-05 04:48 | 14.50746 | 121.01459 | 84 ft | 13 kts | 240° |
| 2026-05-05 04:48 | 14.50699 | 121.01372 | 84 ft | 13 kts | 240° |
| 2026-05-05 04:48 | 14.50652 | 121.01287 | 84 ft | 13 kts | 240° |
| 2026-05-05 04:49 | 14.50605 | 121.01202 | 84 ft | 13 kts | 240° |
| 2026-05-05 04:49 | 14.50557 | 121.01118 | 84 ft | 13 kts | 240° |
| 2026-05-05 04:49 | 14.50510 | 121.01033 | 84 ft | 13 kts | 240° |
| 2026-05-05 04:49 | 14.50464 | 121.00950 | 84 ft | 13 kts | 240° |
| 2026-05-05 04:50 | 14.50417 | 121.00866 | 84 ft | 13 kts | 240° |
| 2026-05-05 04:50 | 14.50379 | 121.00796 | 84 ft | 8 kts | 244° |
| 2026-05-05 04:50 | 14.50379 | 121.00736 | 84 ft | 8 kts | 281° |
| 2026-05-05 04:50 | 14.50387 | 121.00674 | 84 ft | 8 kts | 261° |
| 2026-05-05 04:51 | 14.50366 | 121.00624 | 84 ft | 7 kts | 240° |
| 2026-05-05 04:51 | 14.50349 | 121.00589 | 84 ft | 4 kts | 259° |
| 2026-05-05 04:51 | 14.50365 | 121.00568 | 84 ft | 4 kts | 349° |
| 2026-05-05 04:51 | 14.50399 | 121.00574 | 84 ft | 5 kts | 15° |
| 2026-05-05 04:52 | 14.50434 | 121.00584 | 84 ft | 5 kts | 15° |
| 2026-05-05 04:52 | 14.50472 | 121.00594 | 84 ft | 4 kts | 14° |
| 2026-05-05 04:52 | 14.50485 | 121.00597 | 84 ft | 0 kts | 14° |